WetterOnline ( https://www.wetteronline.de )

Wetter aktuell Neunkirchen/Saarland

Aktuelles Wetter: Tholey (398m)

6-stündlich | Neueste Meldungen
Ortszeit Temperatur Wetter
Di, 16.07. 14:00 20.8° C wolkenlos
Di, 16.07. 8:00 12.3° C wolkenlos
Di, 16.07. 2:00 11.2° C wolkig
Mo, 15.07. 20:00 18.4° C leicht bewölkt
Mo, 15.07. 14:00 18.3° C bewölkt
Mo, 15.07. 8:00 13.1° C bedeckt
Mo, 15.07. 2:00 13.1° C wolkig
So, 14.07. 20:00 16.0° C leicht bewölkt
Ortszeit Temperatur Wetter
Di, 16.07. 17:30 22.6° C leicht bewölkt
Di, 16.07. 17:20 22.6° C leicht bewölkt
Di, 16.07. 17:10 23.1° C leicht bewölkt
Di, 16.07. 17:00 22.9° C leicht bewölkt
Di, 16.07. 16:50 22.9° C wolkig
Di, 16.07. 16:40 22.5° C leicht bewölkt
Di, 16.07. 16:30 22.9° C leicht bewölkt
Di, 16.07. 16:00 22.5° C leicht bewölkt
Di, 16.07. 15:30 21.8° C wolkig
Di, 16.07. 15:00 21.0° C leicht bewölkt
Di, 16.07. 14:30 21.1° C wolkenlos
Ortszeit Relative Feuchte Sichtweite
Di, 16.07. 14:00 46% 15 km
Di, 16.07. 8:00 81% 7 km
Di, 16.07. 2:00 83% 13 km
Mo, 15.07. 20:00 57% 26 km
Mo, 15.07. 14:00 55% 35 km
Mo, 15.07. 8:00 74% 55 km
Mo, 15.07. 2:00 74% 65 km
So, 14.07. 20:00 59% 30 km
Ortszeit Relative Feuchte Sichtweite
Di, 16.07. 17:30 38% 30 km
Di, 16.07. 17:20 38% -
Di, 16.07. 17:10 37% -
Di, 16.07. 17:00 36% 30 km
Di, 16.07. 16:50 36% -
Di, 16.07. 16:40 37% -
Di, 16.07. 16:30 40% 30 km
Di, 16.07. 16:00 41% 23 km
Di, 16.07. 15:30 42% 50 km
Di, 16.07. 15:00 41% 20 km
Di, 16.07. 14:30 48% 20 km
Ortszeit Niederschlagsmenge Niederschlagsart
Di, 16.07. 14:00 0.0 l/m2 in 6 Std. -
Di, 16.07. 8:00 0.0 l/m2 in 12 Std. -
Di, 16.07. 2:00 0.0 l/m2 in 6 Std. -
Mo, 15.07. 20:00 0.0 l/m2 in 12 Std. -
Mo, 15.07. 14:00 0.0 l/m2 in 6 Std. -
Mo, 15.07. 8:00 0.0 l/m2 in 12 Std. -
Mo, 15.07. 2:00 0.0 l/m2 in 6 Std. -
So, 14.07. 20:00 0.0 l/m2 in 12 Std. -
Ortszeit Niederschlagsmenge Niederschlagsart
Di, 16.07. 17:30 0.0 l/m2 in 1 Std. -
Di, 16.07. 17:20 keine Meldung -
Di, 16.07. 17:10 keine Meldung -
Di, 16.07. 17:00 0.0 l/m2 in 1 Std. -
Di, 16.07. 16:50 keine Meldung -
Di, 16.07. 16:40 keine Meldung -
Di, 16.07. 16:30 0.0 l/m2 in 1 Std. -
Di, 16.07. 16:00 0.0 l/m2 in 1 Std. -
Di, 16.07. 15:30 0.0 l/m2 in 1 Std. -
Di, 16.07. 15:00 0.0 l/m2 in 1 Std. -
Di, 16.07. 14:30 0.0 l/m2 in 1 Std. -
Ortszeit Stärke Spitze Richtung
km/h Bft. km/h Grad Sektor
Di, 16.07. 14:00 7 2 18 160° S
Di, 16.07. 8:00 4 1 14 140° SO
Di, 16.07. 2:00 13 3 26 60° NO
Mo, 15.07. 20:00 13 3 22 10° N
Mo, 15.07. 14:00 13 3 28 10° N
Mo, 15.07. 8:00 11 2 25 50° NO
Mo, 15.07. 2:00 11 2 29 30° NO
So, 14.07. 20:00 14 3 36 30° NO
Ortszeit Stärke Spitze Richtung
km/h Bft. km/h Grad Sektor
Di, 16.07. 17:30 9 2 15 130° SO
Di, 16.07. 17:20 9 2 - 130° SO
Di, 16.07. 17:10 6 1 - 100° O
Di, 16.07. 17:00 6 1 24 180° S
Di, 16.07. 16:50 6 1 - 180° S
Di, 16.07. 16:40 7 2 - 160° S
Di, 16.07. 16:30 7 2 25 240° SW
Di, 16.07. 16:00 7 2 14 230° SW
Di, 16.07. 15:30 7 2 14 30° NO
Di, 16.07. 15:00 7 2 17 90° O
Di, 16.07. 14:30 11 2 18 110° O
Ortszeit Untergrenze Bedeckung Gattung
total tief tief mittel hoch
Di, 16.07. 14:00 - 0/8 0/8 - - -
Di, 16.07. 8:00 - 0/8 0/8 - - -
Di, 16.07. 2:00 10500 m 7/8 0/8 - - -
Mo, 15.07. 20:00 7800 m 7/8 0/8 - - -
Mo, 15.07. 14:00 1020 m 7/8 7/8 - - -
Mo, 15.07. 8:00 720 m 8/8 8/8 - - -
Mo, 15.07. 2:00 870 m 6/8 6/8 - - -
So, 14.07. 20:00 1080 m 3/8 1/8 - - -
Ortszeit Bedeckungsgrad in Achtel und Wolkenuntergrenze
Di, 16.07. 17:30 4(10500m) 4(10500m)
Di, 16.07. 17:20 4(10500m) 4(10500m)
Di, 16.07. 17:10 3(9000m) 5(10500m) 6(10500m)
Di, 16.07. 17:00 5(9000m) 7(10500m) 7(10500m)
Di, 16.07. 16:50 5(9000m) 7(10500m) 7(10500m)
Di, 16.07. 16:40 3(9000m) 5(10500m)
Di, 16.07. 16:30 5(9000m)
Di, 16.07. 16:00 8(9000m)
Di, 16.07. 15:30 8(9000m) 8(10500m)
Di, 16.07. 15:00 6(9000m)
Di, 16.07. 14:30 keine Wolken
Ortszeit Luftdruck NN (hPa) Tendenz (hPa in 3 Std.)
Di, 16.07. 14:00 1017 - 0,8
Di, 16.07. 8:00 1019 + 0,3
Di, 16.07. 2:00 1020 + 0,3
Mo, 15.07. 20:00 1017 0,0
Mo, 15.07. 14:00 1018 + 0,2
Mo, 15.07. 8:00 1019 + 0,9
Mo, 15.07. 2:00 1019 0,0
So, 14.07. 20:00 1018 + 0,6
Ortszeit Luftdruck NN (hPa) Tendenz (hPa in 3 Std.)
Di, 16.07. 17:30 1016 - 0,9
Di, 16.07. 17:20 1016 keine Meldung
Di, 16.07. 17:10 1016 keine Meldung
Di, 16.07. 17:00 1016 - 0,8
Di, 16.07. 16:50 1016 keine Meldung
Di, 16.07. 16:40 1016 keine Meldung
Di, 16.07. 16:30 1016 - 0,7
Di, 16.07. 16:00 1016 - 0,9
Di, 16.07. 15:30 1017 - 0,8
Di, 16.07. 15:00 1017 - 0,9
Di, 16.07. 14:30 1017 - 0,9
Ortszeit Schneehöhe (cm)
Di, 16.07. 14:00 -
Di, 16.07. 8:00 -
Di, 16.07. 2:00 -
Mo, 15.07. 20:00 -
Mo, 15.07. 14:00 -
Mo, 15.07. 8:00 -
Mo, 15.07. 2:00 -
So, 14.07. 20:00 -
Ortszeit Schneehöhe (cm)
Di, 16.07. 17:30 -
Di, 16.07. 17:20 -
Di, 16.07. 17:10 -
Di, 16.07. 17:00 -
Di, 16.07. 16:50 -
Di, 16.07. 16:40 -
Di, 16.07. 16:30 -
Di, 16.07. 16:00 -
Di, 16.07. 15:30 -
Di, 16.07. 15:00 -
Di, 16.07. 14:30 -
Link zu dieser Seite / Seite empfehlen

Das Wetter in ...